createdAt,value
2022-12-20T00:01:52.371Z,10.07
2022-12-20T00:04:24.839Z,10.15
2022-12-20T00:06:51.871Z,8.23
2022-12-20T00:09:21.779Z,8.35
2022-12-20T00:11:48.954Z,9.43
2022-12-20T00:14:23.829Z,9.52
2022-12-20T00:16:50.989Z,9.02
2022-12-20T00:19:18.239Z,9.25
2022-12-20T00:21:45.467Z,10.25
2022-12-20T00:24:12.523Z,10.48
2022-12-20T00:26:39.614Z,7.53
2022-12-20T00:29:09.230Z,7.68
2022-12-20T00:31:36.334Z,9.63
2022-12-20T00:34:04.124Z,9.75
2022-12-20T00:36:34.893Z,9.07
2022-12-20T00:39:02.055Z,7.57
2022-12-20T00:41:35.575Z,9.15
2022-12-20T00:44:04.225Z,9.77
2022-12-20T00:46:32.334Z,8.18
2022-12-20T00:48:59.593Z,8.40
2022-12-20T00:51:29.490Z,10.57
2022-12-20T00:53:58.986Z,8.77
2022-12-20T00:56:26.303Z,8.95
2022-12-20T00:58:57.430Z,8.60
2022-12-20T01:01:31.884Z,10.20
2022-12-20T01:03:59.727Z,9.18
2022-12-20T01:06:32.970Z,9.50
2022-12-20T01:09:05.000Z,10.82
2022-12-20T01:11:34.503Z,6.47
2022-12-20T01:14:14.944Z,8.75
2022-12-20T01:16:46.969Z,7.63
2022-12-20T01:19:19.895Z,7.32
2022-12-20T01:21:47.793Z,8.48
2022-12-20T01:24:16.874Z,10.15
2022-12-20T01:26:44.941Z,8.25
2022-12-20T01:29:22.118Z,6.68
2022-12-20T01:31:49.442Z,8.13
2022-12-20T01:34:17.643Z,7.47
2022-12-20T01:36:47.303Z,6.82
2022-12-20T01:39:16.576Z,10.60
2022-12-20T01:41:45.978Z,8.07
2022-12-20T01:44:19.385Z,7.03
2022-12-20T01:46:47.978Z,7.68
2022-12-20T01:49:40.549Z,6.68
2022-12-20T01:52:14.189Z,6.60
2022-12-20T01:54:56.781Z,7.35
2022-12-20T01:57:49.539Z,12.25
2022-12-20T02:00:21.780Z,11.63
2022-12-20T02:02:50.817Z,9.80
2022-12-20T02:05:26.861Z,9.20
2022-12-20T02:07:56.877Z,8.45
2022-12-20T02:10:31.564Z,8.48
2022-12-20T02:13:12.858Z,8.82
2022-12-20T02:15:46.121Z,9.88
2022-12-20T02:18:15.185Z,8.93
2022-12-20T02:21:06.614Z,11.40
2022-12-20T02:24:12.122Z,9.70
2022-12-20T02:27:01.477Z,9.52
2022-12-20T02:29:40.624Z,9.57
2022-12-20T02:32:34.704Z,8.52
2022-12-20T02:35:03.204Z,11.40
2022-12-20T02:37:30.303Z,10.15
2022-12-20T02:39:57.566Z,8.90
2022-12-20T02:42:28.767Z,7.47
2022-12-20T02:45:21.095Z,9.80
2022-12-20T02:48:13.509Z,5.97
2022-12-20T02:50:53.039Z,9.18
2022-12-20T02:53:22.718Z,8.30
2022-12-20T02:56:13.965Z,9.32
2022-12-20T02:58:53.486Z,7.68
2022-12-20T03:01:38.506Z,9.48
2022-12-20T03:04:07.048Z,7.90
2022-12-20T03:06:37.019Z,7.10
2022-12-20T03:09:06.520Z,6.40
2022-12-20T03:11:35.287Z,8.23
2022-12-20T03:14:04.253Z,6.82
2022-12-20T03:16:36.141Z,7.57
2022-12-20T03:19:06.325Z,7.38
2022-12-20T03:21:33.780Z,6.38
2022-12-20T03:24:01.447Z,6.68
2022-12-20T03:26:28.636Z,7.38
2022-12-20T03:28:55.847Z,7.07
2022-12-20T03:31:22.894Z,9.65
2022-12-20T03:33:50.195Z,7.68
2022-12-20T03:36:17.263Z,6.65
2022-12-20T03:38:44.215Z,6.28
2022-12-20T03:41:11.225Z,8.20
2022-12-20T03:43:38.362Z,10.13
2022-12-20T03:46:05.697Z,6.85
2022-12-20T03:48:32.954Z,5.75
2022-12-20T03:51:00.102Z,8.77
2022-12-20T03:53:28.796Z,6.75
2022-12-20T03:55:56.115Z,8.00
2022-12-20T03:58:23.220Z,5.65
2022-12-20T04:00:50.534Z,5.90
2022-12-20T04:03:17.889Z,6.43
2022-12-20T04:05:45.061Z,7.85
2022-12-20T04:08:12.973Z,7.07
2022-12-20T04:10:59.881Z,7.15
2022-12-20T04:13:26.867Z,9.68
2022-12-20T04:15:59.812Z,8.52
2022-12-20T04:18:27.543Z,6.45
2022-12-20T04:20:55.237Z,7.93
2022-12-20T04:23:22.568Z,10.25
2022-12-20T04:25:49.534Z,7.07
2022-12-20T04:28:16.896Z,8.55
2022-12-20T04:30:43.896Z,6.93
2022-12-20T04:33:10.721Z,6.88
2022-12-20T04:35:38.229Z,7.28
2022-12-20T04:38:05.211Z,6.20
2022-12-20T04:40:32.026Z,6.50
2022-12-20T04:42:58.879Z,7.88
2022-12-20T04:45:25.666Z,9.52
2022-12-20T04:47:52.478Z,9.00
2022-12-20T04:50:19.285Z,7.97
2022-12-20T04:53:04.537Z,7.60
2022-12-20T04:55:31.476Z,11.43
2022-12-20T04:58:03.627Z,7.68
2022-12-20T05:00:34.657Z,11.52
2022-12-20T05:03:01.603Z,9.63
2022-12-20T05:05:28.998Z,9.95
2022-12-20T05:07:56.116Z,9.70
2022-12-20T05:10:23.239Z,10.75
2022-12-20T05:12:50.092Z,11.45
2022-12-20T05:15:16.989Z,13.40
2022-12-20T05:17:43.839Z,14.45
2022-12-20T05:20:11.393Z,12.07
2022-12-20T05:22:56.667Z,13.25
2022-12-20T05:25:42.269Z,14.45
2022-12-20T05:28:09.186Z,13.15
2022-12-20T05:30:36.186Z,12.43
2022-12-20T05:33:03.114Z,14.13
2022-12-20T05:35:30.055Z,10.15
2022-12-20T05:37:57.088Z,11.77
2022-12-20T05:40:24.032Z,10.75
2022-12-20T05:42:51.413Z,12.30
2022-12-20T05:45:18.558Z,13.63
2022-12-20T05:47:45.459Z,9.98
2022-12-20T05:50:18.360Z,9.15
2022-12-20T05:52:45.814Z,9.80
2022-12-20T05:55:12.586Z,9.75
2022-12-20T05:58:23.283Z,9.82
2022-12-20T06:01:03.227Z,10.55
2022-12-20T06:03:48.595Z,10.85
2022-12-20T06:06:18.522Z,9.82
2022-12-20T06:08:56.327Z,11.63
2022-12-20T07:15:43.888Z,11.20
2022-12-20T07:18:11.007Z,12.38
2022-12-20T07:20:38.073Z,11.38
2022-12-20T07:23:05.991Z,10.75
2022-12-20T07:25:32.956Z,9.77
2022-12-20T07:27:59.713Z,10.88
2022-12-20T07:30:26.728Z,10.02
2022-12-20T07:32:53.525Z,9.38
2022-12-20T07:35:20.322Z,11.18
2022-12-20T07:37:47.076Z,10.38
2022-12-20T07:40:15.001Z,8.80
2022-12-20T07:42:48.214Z,10.10
2022-12-20T07:45:15.888Z,9.93
2022-12-20T07:47:43.794Z,11.20
2022-12-20T07:50:11.778Z,8.80
2022-12-20T07:52:42.306Z,9.43
2022-12-20T07:55:10.387Z,9.18
2022-12-20T07:57:52.822Z,10.68
2022-12-20T08:00:19.918Z,9.37
2022-12-20T08:02:54.956Z,10.00
2022-12-20T08:05:22.641Z,10.88
2022-12-20T08:07:55.102Z,9.82
2022-12-20T08:10:29.122Z,10.20
2022-12-20T08:12:56.773Z,9.13
2022-12-20T08:15:24.381Z,9.82
2022-12-20T08:17:53.423Z,13.20
2022-12-20T08:20:20.449Z,10.10
2022-12-20T08:22:47.231Z,11.57
2022-12-20T08:25:14.122Z,12.40
2022-12-20T08:27:41.089Z,9.48
2022-12-20T08:30:11.810Z,14.73
2022-12-20T08:32:39.003Z,12.52
2022-12-20T08:35:06.866Z,12.18
2022-12-20T08:37:33.914Z,10.20
2022-12-20T08:40:00.999Z,13.68
2022-12-20T08:42:28.473Z,11.88
2022-12-20T08:44:56.230Z,10.70
2022-12-20T08:47:23.039Z,9.55
2022-12-20T08:49:49.819Z,11.05
2022-12-20T08:52:16.777Z,12.02
2022-12-20T08:54:43.723Z,18.83
2022-12-20T08:57:10.528Z,11.38
2022-12-20T08:59:37.307Z,11.10
2022-12-20T09:02:04.198Z,12.30
2022-12-20T09:04:31.521Z,10.82
2022-12-20T09:06:58.261Z,11.45
2022-12-20T09:09:25.132Z,9.52
2022-12-20T09:11:51.969Z,11.75
2022-12-20T09:17:23.406Z,13.13
2022-12-20T09:20:35.028Z,12.82
2022-12-20T09:28:20.624Z,13.10
2022-12-20T09:30:47.877Z,11.48
2022-12-20T09:33:14.962Z,11.77
2022-12-20T09:35:48.503Z,10.60
2022-12-20T09:38:15.644Z,10.43
2022-12-20T09:40:51.699Z,9.85
2022-12-20T09:43:19.348Z,10.95
2022-12-20T09:45:48.994Z,10.93
2022-12-20T09:48:24.976Z,9.18
2022-12-20T09:51:10.302Z,9.57
2022-12-20T09:54:08.866Z,9.68
2022-12-20T09:56:54.296Z,7.07
2022-12-20T09:59:21.525Z,8.52
2022-12-20T10:01:50.739Z,7.45
2022-12-20T10:04:24.207Z,7.82
2022-12-20T10:07:13.491Z,8.45
2022-12-20T10:09:57.837Z,8.38
2022-12-20T10:12:53.835Z,10.52
2022-12-20T10:15:38.185Z,8.25
2022-12-20T10:18:35.909Z,9.63
2022-12-20T10:21:15.227Z,12.15
2022-12-20T10:24:21.597Z,6.75
2022-12-20T10:26:52.707Z,6.75
2022-12-20T10:29:21.419Z,7.75
2022-12-20T10:31:58.709Z,7.38
2022-12-20T10:34:27.101Z,8.85
2022-12-20T10:37:19.258Z,7.38
2022-12-20T10:39:51.910Z,6.75
2022-12-20T10:42:32.872Z,6.82
2022-12-20T10:45:00.169Z,8.25
2022-12-20T10:47:40.877Z,7.20
2022-12-20T10:50:28.295Z,7.97
2022-12-20T10:53:04.263Z,8.25
2022-12-20T10:55:40.058Z,9.55
2022-12-20T10:58:14.938Z,8.75
2022-12-20T11:00:54.339Z,6.93
2022-12-20T11:03:23.463Z,8.95
2022-12-20T11:06:06.228Z,6.95
2022-12-20T11:08:39.269Z,6.57
2022-12-20T11:11:22.551Z,6.95
2022-12-20T11:13:51.500Z,6.50
2022-12-20T11:16:56.315Z,8.02
2022-12-20T11:19:56.753Z,8.60
2022-12-20T11:22:29.081Z,7.50
2022-12-20T11:25:08.226Z,4.90
2022-12-20T11:27:44.916Z,6.03
2022-12-20T11:30:35.741Z,4.30
2022-12-20T11:33:18.745Z,7.78
2022-12-20T11:36:19.884Z,6.13
2022-12-20T11:39:22.230Z,7.53
2022-12-20T11:42:04.979Z,6.03
2022-12-20T11:44:53.915Z,6.35
2022-12-20T11:47:41.861Z,8.20
2022-12-20T11:50:46.571Z,7.57
2022-12-20T11:53:19.319Z,6.78
2022-12-20T11:56:00.866Z,6.78
2022-12-20T11:58:56.839Z,7.00
2022-12-20T12:01:37.657Z,7.80
2022-12-20T12:04:14.555Z,6.97
2022-12-20T12:07:02.450Z,6.05
2022-12-20T12:09:58.535Z,7.88
2022-12-20T12:12:38.825Z,6.07
2022-12-20T12:16:32.644Z,7.07
2022-12-20T12:22:38.510Z,6.35
2022-12-20T12:25:12.857Z,5.28
2022-12-20T12:27:42.660Z,5.28
2022-12-20T12:30:15.542Z,6.05
2022-12-20T12:32:55.344Z,6.93
2022-12-20T12:36:05.118Z,7.13
2022-12-20T12:39:19.730Z,11.98
2022-12-20T12:42:14.425Z,5.80
2022-12-20T12:45:51.605Z,7.20
2022-12-20T12:48:33.341Z,8.00
2022-12-20T12:51:02.741Z,6.30
2022-12-20T12:53:52.452Z,6.75
2022-12-20T12:56:43.912Z,8.07
2022-12-20T12:59:33.920Z,5.75
2022-12-20T13:02:24.060Z,4.80
2022-12-20T13:05:09.339Z,5.65
2022-12-20T13:07:36.735Z,6.50
2022-12-20T13:10:35.359Z,5.68
2022-12-20T13:13:12.407Z,5.93
2022-12-20T13:15:42.608Z,5.22
2022-12-20T13:18:09.627Z,6.07
2022-12-20T13:20:37.858Z,4.65
2022-12-20T13:23:23.997Z,6.63
2022-12-20T13:25:52.283Z,10.40
2022-12-20T13:28:25.355Z,7.47
2022-12-20T13:33:44.260Z,5.80
2022-12-20T13:36:11.177Z,8.60
2022-12-20T13:38:46.968Z,6.05
2022-12-20T13:41:48.524Z,6.15
2022-12-20T13:44:17.751Z,5.85
2022-12-20T13:47:10.210Z,5.45
2022-12-20T13:49:40.341Z,6.55
2022-12-20T13:52:32.320Z,5.75
2022-12-20T13:55:05.393Z,8.70
2022-12-20T14:00:49.991Z,6.40
2022-12-20T14:03:23.658Z,8.45
2022-12-20T14:05:57.484Z,7.10
2022-12-20T14:09:00.095Z,5.65
2022-12-20T14:11:27.688Z,6.07
2022-12-20T14:14:00.455Z,6.95
2022-12-20T14:20:12.543Z,4.93
2022-12-20T14:23:04.700Z,6.85
2022-12-20T14:25:47.239Z,5.65
2022-12-20T14:28:33.247Z,6.20
2022-12-20T14:31:06.704Z,7.93
2022-12-20T14:33:33.524Z,6.88
2022-12-20T14:36:20.956Z,6.70
2022-12-20T14:38:51.992Z,6.82
2022-12-20T14:41:35.608Z,8.32
2022-12-20T14:44:17.939Z,4.43
2022-12-20T14:46:56.532Z,8.40
2022-12-20T14:49:26.261Z,5.82
2022-12-20T14:52:06.877Z,6.82
2022-12-20T14:55:07.127Z,5.38
2022-12-20T14:57:38.029Z,6.63
2022-12-20T15:03:01.261Z,6.13
2022-12-20T15:05:40.826Z,4.80
2022-12-20T15:08:17.859Z,5.38
2022-12-20T15:10:54.286Z,8.35
2022-12-20T15:13:31.036Z,6.88
2022-12-20T15:16:05.806Z,4.80
2022-12-20T15:18:33.636Z,6.28
2022-12-20T15:21:25.154Z,5.20
2022-12-20T15:24:17.301Z,6.93
2022-12-20T15:27:26.564Z,6.15
2022-12-20T15:29:59.394Z,6.38
2022-12-20T15:32:59.089Z,5.28
2022-12-20T15:41:43.074Z,6.38
2022-12-20T15:44:24.919Z,6.15
2022-12-20T15:46:53.214Z,5.70
2022-12-20T15:49:25.373Z,6.53
2022-12-20T15:51:53.844Z,4.85
2022-12-20T15:54:53.659Z,8.25
2022-12-20T15:57:21.028Z,7.25
2022-12-20T15:59:59.849Z,9.35
2022-12-20T18:05:45.279Z,19.77
2022-12-20T18:08:12.361Z,17.50
2022-12-20T18:10:39.243Z,23.58
2022-12-20T18:13:06.355Z,24.25
2022-12-20T18:15:33.239Z,16.00
2022-12-20T18:18:00.150Z,20.73
2022-12-20T18:20:27.077Z,18.17
2022-12-20T18:22:53.864Z,18.45
2022-12-20T18:25:20.855Z,18.63
2022-12-20T18:27:53.874Z,18.27
2022-12-20T18:30:20.897Z,20.27
2022-12-20T18:32:48.160Z,21.77
2022-12-20T18:35:15.100Z,20.88
2022-12-20T18:37:41.950Z,19.67
2022-12-20T18:40:09.504Z,19.33
2022-12-20T18:48:32.691Z,22.85
2022-12-20T18:51:17.189Z,17.25
2022-12-20T18:56:30.983Z,20.23
2022-12-20T18:59:04.574Z,20.48
2022-12-20T19:01:38.177Z,28.35
2022-12-20T19:07:54.661Z,21.40
2022-12-20T19:10:21.548Z,22.10
2022-12-20T19:12:48.384Z,19.23
2022-12-20T19:15:15.432Z,20.85
2022-12-20T19:17:42.280Z,19.60
2022-12-20T19:20:09.461Z,17.02
2022-12-20T19:22:36.434Z,17.35
2022-12-20T19:25:03.318Z,24.95
2022-12-20T19:27:30.408Z,23.10
2022-12-20T19:29:57.283Z,20.98
2022-12-20T19:32:24.243Z,21.50
2022-12-20T19:34:51.062Z,20.40
2022-12-20T19:37:18.363Z,18.95
2022-12-20T19:39:45.270Z,18.58
2022-12-20T19:42:24.282Z,16.60
2022-12-20T19:44:51.620Z,16.73
2022-12-20T19:47:18.545Z,17.00
2022-12-20T19:49:45.412Z,17.40
2022-12-20T19:52:12.584Z,18.55
2022-12-20T19:54:39.906Z,18.48
2022-12-20T19:57:06.927Z,21.58
2022-12-20T19:59:33.971Z,18.08
2022-12-20T20:02:01.042Z,15.90
2022-12-20T20:04:28.755Z,16.58
2022-12-20T20:06:56.537Z,18.95
2022-12-20T20:09:23.486Z,17.40
2022-12-20T20:11:50.752Z,18.95
2022-12-20T20:14:17.539Z,18.25
2022-12-20T20:16:44.466Z,19.38
2022-12-20T20:19:11.398Z,18.70
2022-12-20T20:21:38.279Z,18.02
2022-12-20T20:24:05.877Z,18.05
2022-12-20T20:26:32.820Z,21.75
2022-12-20T20:29:01.751Z,20.95
2022-12-20T20:31:29.041Z,23.75
2022-12-20T20:33:57.892Z,20.40
2022-12-20T20:36:24.902Z,16.10
2022-12-20T20:38:52.488Z,16.20
2022-12-20T20:41:19.468Z,19.77
2022-12-20T20:43:46.410Z,18.40
2022-12-20T20:46:14.772Z,19.70
2022-12-20T20:48:41.887Z,18.25
2022-12-20T20:51:08.988Z,19.05
2022-12-20T20:53:36.559Z,19.35
2022-12-20T20:56:05.022Z,17.60
2022-12-20T20:58:32.847Z,18.50
2022-12-20T21:01:01.163Z,21.55
2022-12-20T21:03:29.901Z,17.38
2022-12-20T21:06:34.871Z,16.33
2022-12-20T21:08:44.645Z,20.25
2022-12-20T21:11:11.670Z,19.55
2022-12-20T21:13:38.774Z,18.65
2022-12-20T21:16:11.492Z,22.63
2022-12-20T21:18:41.546Z,19.75
2022-12-20T21:21:13.010Z,25.30
2022-12-20T21:23:45.115Z,22.30
2022-12-20T21:26:13.094Z,20.38
2022-12-20T21:28:40.658Z,27.02
2022-12-20T21:31:11.039Z,25.88
2022-12-20T21:33:38.419Z,27.98
2022-12-20T21:36:17.198Z,34.72
2022-12-20T21:38:55.267Z,32.20
2022-12-20T21:41:23.548Z,30.70
2022-12-20T21:43:51.402Z,32.95
2022-12-20T21:46:18.362Z,28.63
2022-12-20T21:48:45.413Z,26.98
2022-12-20T21:51:15.014Z,30.85
2022-12-20T21:53:50.707Z,26.88
2022-12-20T21:56:18.866Z,29.88
2022-12-20T21:58:46.716Z,31.05
2022-12-20T22:01:16.166Z,31.55
2022-12-20T22:03:44.619Z,34.78
2022-12-20T22:06:11.847Z,40.15
2022-12-20T22:08:38.645Z,40.08
2022-12-20T22:11:10.860Z,39.95
2022-12-20T22:13:41.497Z,38.30
2022-12-20T22:16:12.770Z,39.03
2022-12-20T22:18:40.695Z,40.85
2022-12-20T22:21:10.409Z,39.55
2022-12-20T22:23:37.811Z,42.92
2022-12-20T22:26:15.549Z,41.80
2022-12-20T22:28:51.972Z,43.22
2022-12-20T22:31:19.387Z,47.58
2022-12-20T22:33:46.960Z,52.30
2022-12-20T22:36:15.715Z,50.47
2022-12-20T22:38:46.098Z,52.50
2022-12-20T22:41:14.281Z,58.03
2022-12-20T22:43:42.974Z,52.80
2022-12-20T22:46:14.340Z,52.90
2022-12-20T22:48:45.186Z,70.50
2022-12-20T22:51:13.521Z,61.95
2022-12-20T22:53:40.994Z,66.55
2022-12-20T22:56:08.465Z,64.30
2022-12-20T22:58:36.531Z,68.10
2022-12-20T23:01:06.305Z,63.63
2022-12-20T23:03:33.285Z,68.45
2022-12-20T23:06:02.132Z,65.40
2022-12-20T23:08:31.377Z,65.50
2022-12-20T23:11:16.590Z,70.63
2022-12-20T23:14:02.336Z,66.20
2022-12-20T23:16:29.521Z,77.68
2022-12-20T23:18:57.932Z,70.63
2022-12-20T23:21:43.658Z,74.00
2022-12-20T23:24:11.425Z,72.18
2022-12-20T23:26:39.452Z,77.32
2022-12-20T23:29:08.307Z,68.03
2022-12-20T23:31:35.697Z,73.40
2022-12-20T23:34:02.862Z,74.43
2022-12-20T23:36:30.269Z,77.38
2022-12-20T23:38:57.218Z,72.45
2022-12-20T23:41:23.933Z,69.00
2022-12-20T23:43:50.901Z,72.53
2022-12-20T23:46:20.010Z,74.00
2022-12-20T23:48:47.023Z,77.13
2022-12-20T23:51:13.856Z,85.47
2022-12-20T23:53:40.644Z,70.72
2022-12-20T23:56:17.053Z,80.85
2022-12-20T23:58:46.075Z,76.03
